Welcome to our Virtual Airline
Sign-in:

Flight KHKDIV

  • Submitted By: Karl Klotz
  • Departure Airport: Bell Island Hot Springs (KBE)
  • Arrival Airport: Yes Bay Lodge SPB (78K)
  • Aircraft: ICON A5 (N0A5MM)
  • Flight Time: 00.12.38
  • Date Submitted: 21/04/25
  • Route: DIRECT
  • Status: Accepted
Flight Details
Gross Revenue:
(1 load / $ 0.00 per unit
$ 0.00
Fuel Cost:
(2.26796 fuel used @ 0 / unit)
$ 0.00

Additional Log Information:

View Log

[21:13] ----- Flight Opened -----
[21:13] Cigar Box - 1.1.4.0
[21:13] FS: Prepar3D V4
[21:13] FSUIPC: v6,005
[21:13] Flight Number: KHKDIV
[21:13] FS Aircraft: Icon A5 Coast Gaurd
[21:13] FS Model: LSA
[21:13] FS Type: Ultralight
[21:13] Departure: KBE
[21:13] Arrival: 78K
[21:13] Flight Level: 3000
[21:13] Flight Type: H
[21:13] Passengers: 1
[21:13] FOB: 36 lbs
[21:13] Gate: n/a
[21:13] NOTE: Parking Brake Ignored
[21:13] Crash Detection: Disabled
[21:13] Engines: 1 Piston
[21:13] NOTE: Boarding has started
[21:13] Parking Brake: Engaged
[21:13] Light Data: Recognition lights ON
[21:13] Light Data: Wing lights ON
[21:13] Light Data: Logo lights ON
[21:13] Light Data: Cabin lights ON
[21:13] Main Door Closed
[21:13] COM1: 128.30
[21:13] COM2: 127.80
[21:13] Transponder: 3442
[21:13] NAV1: 113.70
[21:13] NAV2: 110.60
[21:13] ADF1: 1400.0
[21:13] ADF2: 240.0
[21:13] Navigation Mode: NAV
[21:14] Parking Brake: Released
[21:14] Engine 1: Started
[21:14] Light Data: Instrument lights ON
[21:14] Light Data: Navigation ON
[21:14] Light Data: Beacon ON
[21:14] Light Data: Landing lights ON
[21:14] Light Data: Strobe lights ON
[21:14] NOTE: Taxi started
[21:15] NOTE: ----- TAKE OFF -----
[21:15] GS: 64 knots
[21:15] TAS: 65 knots
[21:15] IAS: 65 knots
[21:15] VS: 426 fpm
[21:15] FOB: 35 lbs
[21:15] Heading: 217°
[21:15] Pitch: 8°
[21:15] Bank: 0°
[21:15] Aircraft Weight: 1245,83 lbs
[21:15] Nearest Airport: KBE
[21:15] Distance: 0,73 miles
[21:15] Runway: ???
[21:15] Ground Surface: Water
[21:15] Ground Condition: Normal
[21:15] NOTE: Weather Report
[21:15] Wind Heading: 341°
[21:15] Wind Speed: 0 knots
[21:15] OAT: 14° C
[21:15] TAT: 15° C
[21:15] Precipitation: None
[21:15] Dew Point: 5° C
[21:15] Visibility: 62 miles
[21:15] METAR: KBEA 251855Z AUTO 10009G14KT 080V140 10SM CLR 32/17 A2999 RMK AO2 T03150167 KBEH 251853Z AUTO 01009G19KT 10SM SCT025 05/M03 A3014 RMK AO2 SLP213 T00501028 KBED 251851Z 08007KT 10SM BKN017 OVC043 12/07 A2968 RMK AO2 SLP063 T01220067 KBEC 251855Z AUTO 17023G30KT 10SM CLR 22/10 A2983 RMK AO2 T02180097
[21:15] NOTE: Climb started
[21:15] View Mode: Virtual Cockpit
[21:15] Landing Gear: Retracted
[21:15] GS: 87 knots
[21:15] TAS: 88 knots
[21:15] IAS: 88 knots
[21:15] VS: 468 fpm
[21:15] AGL: 597 ft
[21:15] AMSL: 597 ft
[21:16] Light Data: Landing lights OFF
[21:16] AGL: 731 ft
[21:16] AMSL: 731 ft
[21:17] Flaps: Position 1
[21:17] GS: 85 knots
[21:17] TAS: 87 knots
[21:17] IAS: 87 knots
[21:17] VS: -901 fpm
[21:17] Flaps: Position 2
[21:17] GS: 79 knots
[21:17] TAS: 81 knots
[21:17] IAS: 81 knots
[21:17] VS: -919 fpm
[21:18] NOTE: ----- LANDED -----
[21:18] Landing Rate: -79,20 fpm
[21:18] GS: 56 knots
[21:18] TAS: 56 knots
[21:18] IAS: 56 knots
[21:18] VS: -79 fpm
[21:18] FOB: 34 lbs
[21:18] Heading: 38°
[21:18] Pitch: 0°
[21:18] Bank: 0°
[21:18] Aircraft Weight: 1244,77 lbs
[21:18] Nearest Airport: KBE
[21:18] Distance: 0,65 miles
[21:18] Runway: ???
[21:18] Ground Surface: Water
[21:18] Ground Condition: Normal
[21:18] NOTE: Weather Report
[21:18] Wind Heading: 341°
[21:18] Wind Speed: 0 knots
[21:18] OAT: 14° C
[21:18] TAT: 15° C
[21:18] Precipitation: None
[21:18] Dew Point: 4° C
[21:18] Visibility: 62 miles
[21:18] METAR:
[21:18] View Mode: Virtual Cockpit
[21:18] NOTE: Taxi started
[21:19] Engine 1: Stopped
[21:19] Light Data: Strobe lights OFF
[21:19] Light Data: Navigation OFF
[21:19] Light Data: Beacon OFF
[21:19] Light Data: Instrument lights OFF
[21:19] Engine 1: Started
[21:19] Light Data: Beacon ON
[21:19] Light Data: Instrument lights ON
[21:20] Light Data: Navigation ON
[21:20] Light Data: Strobe lights ON
[21:20] Light Data: Landing lights ON
[21:20] Flaps: Position 1
[21:20] Flaps: Position 0
[21:20] View Mode: Virtual Cockpit
[21:21] Light Data: Landing lights OFF
[21:21] AGL: 757 ft
[21:21] AMSL: 757 ft
[21:23] Flaps: Position 1
[21:23] GS: 91 knots
[21:23] TAS: 91 knots
[21:23] IAS: 90 knots
[21:23] VS: -84 fpm
[21:25] Flaps: Position 2
[21:25] GS: 71 knots
[21:25] TAS: 72 knots
[21:25] IAS: 72 knots
[21:25] VS: -236 fpm
[21:26] NOTE: ----- LANDED -----
[21:26] Landing Rate: -78,43 fpm
[21:26] GS: 48 knots
[21:26] TAS: 50 knots
[21:26] IAS: 50 knots
[21:26] VS: -76 fpm
[21:26] FOB: 31 lbs
[21:26] Heading: 283°
[21:26] Pitch: 2°
[21:26] Bank: 0°
[21:26] Aircraft Weight: 1241,67 lbs
[21:26] Nearest Airport: GF21
[21:26] Distance: 0,20 miles
[21:26] Runway: ???
[21:26] Ground Surface: Water
[21:26] Ground Condition: Normal
[21:26] NOTE: Weather Report
[21:26] Wind Heading: 341°
[21:26] Wind Speed: 0 knots
[21:26] OAT: 14° C
[21:26] TAT: 15° C
[21:26] Precipitation: None
[21:26] Dew Point: 4° C
[21:26] Visibility: 62 miles
[21:26] METAR:
[21:26] View Mode: Virtual Cockpit
[21:27] Gate: n/a
[21:27] NOTE: Flight Completed
[21:27] FS Aircraft: Icon A5 Coast Gaurd
[21:27] FS Model: LSA
[21:27] FS Type: Ultralight
[21:27] FOB: 31 lbs
[21:27] Fuel Used: 5 lbs
[21:27] Flight Time: 00:12:38
[21:27] Flight Time (Dawn): 00:00:00
[21:27] Flight Time (Day): 00:12:38
[21:27] Flight Time (Dusk): 00:00:00
[21:27] Flight Time (Night): 00:00:00
[21:27] Total Landings: 2
[21:27] MaxSim Rate: 1x
[21:27] Cigar Box - 1.1.4.0
[21:27] ----- Flight Closed -----

Route Map